Chesterfield Township, Michigan
Current Conditions -  °F | °C
As of 3:23 AM on Friday 24 Oct 2014 (Local Time) from KMTC Reporting Station
Clear Clear  
Wind Chill: 37°   Ceiling: Unl
Heat Index: 37°   Visibility: 9mi
Dew Point: 37°   Wind: 1mph
Humidity: 100%   Direction: 300°WNW
Pressure: 30.06"   Gusts: NA
Location:  42.6875°N, 82.8325°W
Report Text: KMTC 240723Z AUTO 30001KT 9SM R19/5500FT CLR 03/03 A3006 RMK AO2
Loading
Personal Weather Stations






























Interactive Weather Map
Tropical Storm Tracking
New forecast layout! Learn more

10-Day Weather Forecast

Advertisements
Track Severe Weather on mobile